Time;durP1;ratioP1;P1;durP2;ratioP2;P2;SDS_P1;SDS_P2;PMS_P1;PMS_P2;Temp;Humidity;BMP_temperature;BMP_pressure;BME280_temperature;BME280_humidity;BME280_pressure;Samples;Min_cycle;Max_cycle;Signal;HPM_P1;HPM_P2
2022/10/23 00:00:47;;;;;;;;;;;;;;;9.92;100.00;67875.69;4950717;29;19915;-80
2022/10/23 00:03:13;;;;;;;;;;;;;;;9.94;100.00;67872.66;4944875;29;19921;-83
2022/10/23 00:05:39;;;;;;;;;;;;;;;9.90;100.00;67868.13;4950074;29;19945;-80
2022/10/23 00:08:04;;;;;;;;;;;;;;;9.89;100.00;67872.28;4951427;29;19915;-81
2022/10/23 00:10:30;;;;;;;;;;;;;;;9.94;100.00;67878.53;4933178;29;19997;-80
2022/10/23 00:12:56;;;;;;;;;;;;;;;9.86;100.00;67863.56;4951075;28;19950;-80
2022/10/23 00:15:21;;;;;;;;;;;;;;;;;;4952089;29;20378;-81
2022/10/23 00:17:46;;;;;;;;;;;;;;;9.89;100.00;67867.53;4952698;29;19914;-81
2022/10/23 00:20:12;;;;;;;;;;;;;;;9.88;100.00;67865.84;4952698;29;19914;-82
2022/10/23 00:22:38;;;;;;;;;;;;;;;;;;4950785;28;19926;-80
2022/10/23 00:25:03;;;;;;;;;;;;;;;;;;4952069;29;19915;-81
2022/10/23 00:27:28;;;;;;;;;;;;;;;9.95;100.00;67873.78;4951490;29;19938;-83
2022/10/23 00:29:53;;;;;;;;;;;;;;;;;;4949346;28;20413;-82
2022/10/23 00:32:18;;;;;;;;;;;;;;;9.84;100.00;67861.31;4947336;29;19997;-81
2022/10/23 00:34:43;;;;;;;;;;;;;;;9.79;100.00;67860.97;4948661;29;19938;-82
2022/10/23 00:37:09;;;;;;;;;;;;;;;9.74;100.00;67850.53;4946388;29;19919;-81
2022/10/23 00:39:34;;;;;;;;;;;;;;;;;;4950782;29;19919;-81
2022/10/23 00:41:59;;;;;;;;;;;;;;;;;;4935164;29;20000;-83
2022/10/23 00:44:24;;;;;;;;;;;;;;;9.64;100.00;67839.22;4950416;28;19915;-81
2022/10/23 00:46:49;;;;;;;;;;;;;;;9.56;100.00;67838.09;4951524;29;19921;-82
2022/10/23 00:49:14;;;;;;;;;;;;;;;;;;4951058;29;19915;-79
2022/10/23 00:51:45;;;;;;;;;;;;;;;9.55;100.00;67829.56;4948430;29;19923;-82
2022/10/23 00:54:11;;;;;;;;;;;;;;;9.57;100.00;67837.13;4951254;28;20393;-82
2022/10/23 00:56:36;;;;;;;;;;;;;;;;;;4951760;29;19998;-82
2022/10/23 00:59:01;;;;;;;;;;;;;;;9.61;100.00;67833.13;4952175;29;20042;-82
2022/10/23 01:01:26;;;;;;;;;;;;;;;9.66;100.00;67838.81;4933588;29;20056;-82
2022/10/23 01:03:52;;;;;;;;;;;;;;;9.64;100.00;67839.22;4949903;28;19997;-81
2022/10/23 01:06:41;;;;;;;;;;;;;;;9.69;100.00;67842.75;4952934;29;19946;-83
2022/10/23 01:09:18;;;;;;;;;;;;;;;9.70;100.00;67851.88;4943576;29;19914;-82
2022/10/23 01:11:43;;;;;;;;;;;;;;;;;;4938751;29;19927;-82
2022/10/23 01:14:09;;;;;;;;;;;;;;;;;;4957379;28;19938;-82
2022/10/23 01:16:34;;;;;;;;;;;;;;;;;;4957322;29;19945;-83
2022/10/23 01:19:11;;;;;;;;;;;;;;;9.43;100.00;67813.84;4957813;29;20378;-82
2022/10/23 01:21:49;;;;;;;;;;;;;;;9.38;100.00;67810.28;4941807;29;20374;-82
2022/10/23 01:24:18;;;;;;;;;;;;;;;9.36;100.00;67805.94;4988913;23;19998;-82
2022/10/23 01:26:53;;;;;;;;;;;;;;;9.35;100.00;67806.88;4946795;29;20469;-79
2022/10/23 01:29:24;;;;;;;;;;;;;;;9.30;100.00;67801.78;4958438;29;19929;-80
2022/10/23 01:31:49;;;;;;;;;;;;;;;;;;4965125;29;20143;-80
2022/10/23 01:34:14;;;;;;;;;;;;;;;;;;4970492;28;19914;-82
2022/10/23 01:36:42;;;;;;;;;;;;;;;9.31;100.00;67802.91;4949335;29;19933;-82
2022/10/23 01:39:08;;;;;;;;;;;;;;;;;;4959709;29;20301;-83
2022/10/23 01:41:33;;;;;;;;;;;;;;;;;;4946203;29;19918;-83
2022/10/23 01:44:01;;;;;;;;;;;;;;;9.35;100.00;67807.47;4949295;28;19926;-82
2022/10/23 01:46:26;;;;;;;;;;;;;;;9.37;100.00;67815.03;4946298;29;19939;-83
2022/10/23 01:48:52;;;;;;;;;;;;;;;;;;4950939;29;19918;-83
2022/10/23 01:51:18;;;;;;;;;;;;;;;9.26;100.00;67797.81;4952064;29;19925;-81
2022/10/23 01:53:45;;;;;;;;;;;;;;;9.36;100.00;67813.34;4948675;28;19937;-82
2022/10/23 01:56:11;;;;;;;;;;;;;;;9.30;100.00;67798.56;4952472;29;19956;-83
2022/10/23 01:58:38;;;;;;;;;;;;;;;9.24;100.00;67800.31;4950467;29;19920;-81
2022/10/23 02:01:05;;;;;;;;;;;;;;;9.35;100.00;67807.47;4951301;29;20009;-82
2022/10/23 02:03:30;;;;;;;;;;;;;;;;;;4949984;28;19914;-81
2022/10/23 02:05:56;;;;;;;;;;;;;;;9.44;100.00;67814.44;4950818;29;19966;-82
2022/10/23 02:08:21;;;;;;;;;;;;;;;;;;4951086;29;19981;-84
2022/10/23 02:10:58;;;;;;;;;;;;;;;9.58;100.00;67832.97;4950556;29;19918;-81
2022/10/23 02:13:37;;;;;;;;;;;;;;;9.60;100.00;67834.66;4949908;28;20066;-82
2022/10/23 02:16:02;;;;;;;;;;;;;;;;;;4950804;28;20374;-82
2022/10/23 02:18:37;;;;;;;;;;;;;;;9.70;100.00;67843.34;4950666;28;20397;-83
2022/10/23 02:21:13;;;;;;;;;;;;;;;9.71;100.00;67847.69;4943187;28;19918;-82
2022/10/23 02:23:38;;;;;;;;;;;;;;;;;;4949624;28;20310;-83
2022/10/23 02:26:19;;;;;;;;;;;;;;;9.69;100.00;67850.75;4951460;29;20167;-82
2022/10/23 02:28:52;;;;;;;;;;;;;;;9.72;100.00;67848.25;4950047;28;19923;-82
2022/10/23 02:31:20;;;;;;;;;;;;;;;9.73;100.00;67848.84;4946630;29;20313;-83
2022/10/23 02:33:45;;;;;;;;;;;;;;;9.69;100.00;67850.19;4931355;29;20294;-80
2022/10/23 02:36:11;;;;;;;;;;;;;;;9.70;100.00;67846.56;4932993;29;19914;-83
2022/10/23 02:38:36;;;;;;;;;;;;;;;9.65;100.00;67838.25;4948697;28;19938;-82
2022/10/23 02:41:37;;;;;;;;;;;;;;;9.70;100.00;67851.88;4934389;29;20448;-82
2022/10/23 02:44:02;;;;;;;;;;;;;;;;;;4892642;29;19915;-83
2022/10/23 02:46:31;;;;;;;;;;;;;;;9.79;100.00;67855.66;4927620;29;19915;-83
2022/10/23 02:48:56;;;;;;;;;;;;;;;;;;4943575;29;20433;-83
2022/10/23 02:51:27;;;;;;;;;;;;;;;9.79;100.00;67855.66;4949292;29;20601;-83
2022/10/23 02:53:52;;;;;;;;;;;;;;;9.87;100.00;67865.28;4947780;28;20144;-84
2022/10/23 02:56:17;;;;;;;;;;;;;;;;;;4931768;29;19924;-82
2022/10/23 02:58:42;;;;;;;;;;;;;;;;;;4948954;28;19954;-82
2022/10/23 03:01:10;;;;;;;;;;;;;;;9.95;100.00;67881.75;4934125;29;19922;-82
2022/10/23 03:03:39;;;;;;;;;;;;;;;9.99;100.00;67878.31;4947640;28;20004;-83
2022/10/23 03:06:04;;;;;;;;;;;;;;;10.06;100.00;67885.69;4927588;29;19920;-82
2022/10/23 03:08:39;;;;;;;;;;;;;;;10.07;100.00;67886.81;4933754;29;19915;-82
2022/10/23 03:11:04;;;;;;;;;;;;;;;;;;4951193;29;19950;-83
2022/10/23 03:13:30;;;;;;;;;;;;;;;10.09;100.00;67886.44;4949991;29;19981;-83
2022/10/23 03:15:55;;;;;;;;;;;;;;;10.01;100.00;67880.59;4950968;29;19914;-82
2022/10/23 03:18:20;;;;;;;;;;;;;;;10.06;100.00;67886.25;4950558;29;19914;-81
2022/10/23 03:20:45;;;;;;;;;;;;;;;10.07;100.00;67887.41;4930478;29;19922;-81
2022/10/23 03:23:10;;;;;;;;;;;;;;;;;;4936079;28;19925;-83
2022/10/23 03:25:38;;;;;;;;;;;;;;;10.02;100.00;67879.06;4950388;29;19926;-80
2022/10/23 03:28:03;;;;;;;;;;;;;;;;;;4923856;29;20374;-82
2022/10/23 03:30:29;;;;;;;;;;;;;;;10.03;100.00;67888.16;4915304;29;20404;-83
2022/10/23 03:32:54;;;;;;;;;;;;;;;10.04;100.00;67884.00;4931013;29;19957;-83
2022/10/23 03:35:19;;;;;;;;;;;;;;;10.05;100.00;67885.13;4932799;29;19915;-81
2022/10/23 03:37:44;;;;;;;;;;;;;;;10.03;100.00;67882.84;4945255;29;19922;-83
2022/10/23 03:40:10;;;;;;;;;;;;;;;10.02;100.00;67889.72;4950510;29;20539;-82
2022/10/23 03:42:35;;;;;;;;;;;;;;;;;;4947238;28;20041;-82
2022/10/23 03:45:00;;;;;;;;;;;;;;;;;;4948678;29;20297;-80
2022/10/23 03:47:25;;;;;;;;;;;;;;;9.91;100.00;67866.59;4951604;29;19921;-81
2022/10/23 03:49:50;;;;;;;;;;;;;;;;;;4932973;29;19978;-82
2022/10/23 03:52:16;;;;;;;;;;;;;;;9.91;100.00;67869.25;4931603;29;19918;-83
2022/10/23 03:54:41;;;;;;;;;;;;;;;9.92;100.00;67870.38;4950497;28;19922;-83
2022/10/23 03:57:06;;;;;;;;;;;;;;;9.92;100.00;67875.69;4950879;29;20001;-82
2022/10/23 03:59:31;;;;;;;;;;;;;;;;;;4951447;29;19919;-83
2022/10/23 04:01:56;;;;;;;;;;;;;;;9.94;100.00;67877.97;4948922;29;19918;-83
2022/10/23 04:04:22;;;;;;;;;;;;;;;9.91;100.00;67869.25;4950035;28;20366;-82
2022/10/23 04:06:47;;;;;;;;;;;;;;;9.89;100.00;67866.97;4950834;29;19915;-83
2022/10/23 04:09:12;;;;;;;;;;;;;;;;;;4950409;29;19949;-83
2022/10/23 04:11:37;;;;;;;;;;;;;;;9.85;100.00;67857.69;4950630;29;19923;-82
2022/10/23 04:14:02;;;;;;;;;;;;;;;;;;4949735;28;19957;-81
2022/10/23 04:16:28;;;;;;;;;;;;;;;9.85;100.00;67859.78;4951173;29;19922;-84
2022/10/23 04:18:53;;;;;;;;;;;;;;;9.88;100.00;67871.72;4951039;29;19914;-81
2022/10/23 04:21:18;;;;;;;;;;;;;;;9.91;100.00;67866.59;4952192;29;20410;-84
2022/10/23 04:23:43;;;;;;;;;;;;;;;9.94;100.00;67872.66;4949007;28;20632;-83
2022/10/23 04:26:09;;;;;;;;;;;;;;;10.03;100.00;67880.19;4939604;29;19921;-83
2022/10/23 04:28:34;;;;;;;;;;;;;;;;;;4950532;28;20546;-83
2022/10/23 04:30:59;;;;;;;;;;;;;;;10.07;100.00;67887.41;4950519;29;19919;-83
2022/10/23 04:33:24;;;;;;;;;;;;;;;10.12;100.00;67892.50;4951826;29;20005;-83
2022/10/23 04:35:50;;;;;;;;;;;;;;;10.11;100.00;67891.94;4950521;29;19914;-83
2022/10/23 04:38:15;;;;;;;;;;;;;;;10.12;100.00;67892.50;4953487;28;19915;-80
2022/10/23 04:40:40;;;;;;;;;;;;;;;10.12;100.00;67889.84;4955330;29;19918;-82
2022/10/23 04:43:05;;;;;;;;;;;;;;;;;;4956193;28;19918;-82
2022/10/23 04:45:30;;;;;;;;;;;;;;;10.16;100.00;67897.59;4950714;29;19921;-84
2022/10/23 04:47:56;;;;;;;;;;;;;;;10.16;100.00;67894.38;4955382;29;19961;-83
2022/10/23 04:50:21;;;;;;;;;;;;;;;10.20;100.00;67901.00;4956063;29;20293;-84
2022/10/23 04:52:47;;;;;;;;;;;;;;;10.22;100.00;67900.63;4955548;28;19919;-83
2022/10/23 04:55:12;;;;;;;;;;;;;;;10.21;100.00;67908.03;4956507;29;19921;-83
2022/10/23 04:57:37;;;;;;;;;;;;;;;;;;4949313;28;19929;-83
2022/10/23 05:00:02;;;;;;;;;;;;;;;;;;4955682;28;20366;-83
2022/10/23 05:02:27;;;;;;;;;;;;;;;;;;4949675;29;19914;-84
2022/10/23 05:04:52;;;;;;;;;;;;;;;10.31;100.00;67913.50;4936657;29;20377;-83
2022/10/23 05:07:18;;;;;;;;;;;;;;;10.31;100.00;67914.06;4954837;29;19958;-83
2022/10/23 05:09:43;;;;;;;;;;;;;;;10.32;100.00;67914.63;4953982;29;19919;-83
2022/10/23 05:12:08;;;;;;;;;;;;;;;10.34;100.00;67916.91;4956298;29;19927;-82
2022/10/23 05:14:33;;;;;;;;;;;;;;;10.36;100.00;67916.53;4956353;28;20017;-83
2022/10/23 05:16:59;;;;;;;;;;;;;;;10.38;100.00;67921.44;4940238;29;19965;-81
2022/10/23 05:19:25;;;;;;;;;;;;;;;;;;4957493;29;19914;-83
2022/10/23 05:21:54;;;;;;;;;;;;;;;10.39;100.00;67919.94;4962596;29;19914;-83
2022/10/23 05:24:20;;;;;;;;;;;;;;;10.43;100.00;67926.56;4964025;28;19937;-81
2022/10/23 05:26:45;;;;;;;;;;;;;;;10.50;100.00;67931.81;4964365;29;20078;-81
2022/10/23 05:29:10;;;;;;;;;;;;;;;;;;4951208;29;19914;-82
2022/10/23 05:31:35;;;;;;;;;;;;;;;10.51;100.00;67933.53;4950598;29;19923;-82
2022/10/23 05:34:01;;;;;;;;;;;;;;;10.49;100.00;67930.69;4955993;28;19938;-84
2022/10/23 05:36:26;;;;;;;;;;;;;;;10.49;100.00;67933.94;4941611;29;19914;-84
2022/10/23 05:38:52;;;;;;;;;;;;;;;10.48;100.00;67932.81;4955331;29;19919;-81
2022/10/23 05:41:17;;;;;;;;;;;;;;;10.53;100.00;67935.81;4941760;29;19914;-84
2022/10/23 05:43:42;;;;;;;;;;;;;;;10.58;100.00;67941.47;4961757;28;19918;-83
2022/10/23 05:46:08;;;;;;;;;;;;;;;10.59;100.00;67942.06;4967210;29;19938;-81
2022/10/23 05:48:33;;;;;;;;;;;;;;;10.61;100.00;67947.53;4963842;29;19984;-83
2022/10/23 05:51:02;;;;;;;;;;;;;;;10.64;100.00;67949.81;4955653;28;19927;-81
2022/10/23 05:53:28;;;;;;;;;;;;;;;10.65;100.00;67950.97;4965395;28;19924;-82
2022/10/23 05:55:53;;;;;;;;;;;;;;;10.69;100.00;67952.81;4966999;29;19914;-83
2022/10/23 05:58:18;;;;;;;;;;;;;;;10.69;100.00;67950.16;4964185;29;19914;-81
2022/10/23 06:00:43;;;;;;;;;;;;;;;10.69;100.00;67956.06;4953979;29;20390;-83
2022/10/23 06:03:08;;;;;;;;;;;;;;;10.72;100.00;67956.22;4952004;28;19914;-81
2022/10/23 06:05:34;;;;;;;;;;;;;;;10.75;100.00;67967.63;4951897;29;19918;-84
2022/10/23 06:07:59;;;;;;;;;;;;;;;10.74;100.00;67961.72;4953971;29;19959;-82
2022/10/23 06:10:24;;;;;;;;;;;;;;;;;;4936384;29;20010;-81
2022/10/23 06:12:49;;;;;;;;;;;;;;;;;;4935723;29;19973;-83
2022/10/23 06:15:15;;;;;;;;;;;;;;;10.82;100.00;67970.25;4954408;29;19949;-82
2022/10/23 06:17:40;;;;;;;;;;;;;;;10.81;100.00;67969.09;4954162;29;20547;-83
2022/10/23 06:20:06;;;;;;;;;;;;;;;10.82;100.00;67976.13;4954630;29;20001;-83
2022/10/23 06:22:31;;;;;;;;;;;;;;;10.82;100.00;67967.59;4953013;29;19950;-82
2022/10/23 06:24:56;;;;;;;;;;;;;;;;;;4952815;28;20357;-82
2022/10/23 06:27:21;;;;;;;;;;;;;;;10.81;100.00;67967.00;4953087;29;19925;-81
2022/10/23 06:29:47;;;;;;;;;;;;;;;;;;4953358;29;19914;-83
2022/10/23 06:32:12;;;;;;;;;;;;;;;;;;4953310;29;19925;-81
2022/10/23 06:34:37;;;;;;;;;;;;;;;10.84;100.00;67967.19;4954317;28;19921;-83
2022/10/23 06:37:02;;;;;;;;;;;;;;;10.86;100.00;67974.22;4951992;29;19922;-83
2022/10/23 06:39:27;;;;;;;;;;;;;;;;;;4954766;29;19958;-82
2022/10/23 06:41:53;;;;;;;;;;;;;;;10.89;100.00;67978.19;4951050;29;19915;-80
2022/10/23 06:44:18;;;;;;;;;;;;;;;10.89;100.00;67975.53;4936005;29;19949;-81
2022/10/23 06:46:46;;;;;;;;;;;;;;;10.91;100.00;67980.47;4951162;29;19985;-83
2022/10/23 06:49:11;;;;;;;;;;;;;;;;;;4952634;29;19921;-83
2022/10/23 06:51:36;;;;;;;;;;;;;;;10.92;100.00;67981.03;4950478;29;19922;-82
2022/10/23 06:54:01;;;;;;;;;;;;;;;10.93;100.00;67982.72;4952892;28;19915;-83
2022/10/23 06:56:28;;;;;;;;;;;;;;;;;;4933150;29;19941;-82
2022/10/23 06:58:53;;;;;;;;;;;;;;;;;;4948123;29;20421;-82
2022/10/23 07:01:18;;;;;;;;;;;;;;;10.96;100.00;67986.16;4952983;28;20629;-84
2022/10/23 07:03:43;;;;;;;;;;;;;;;10.98;100.00;67985.72;4957909;23;19937;-83
2022/10/23 07:06:09;;;;;;;;;;;;;;;10.98;100.00;67988.41;4951949;29;20306;-81
2022/10/23 07:08:34;;;;;;;;;;;;;;;;;;4946075;29;19914;-83
2022/10/23 07:11:03;;;;;;;;;;;;;;;11.05;100.00;67995.78;4934130;29;19915;-84
2022/10/23 07:13:29;;;;;;;;;;;;;;;11.10;100.00;67996.13;4951661;28;19918;-80
2022/10/23 07:15:54;;;;;;;;;;;;;;;;;;4950537;29;20251;-83
2022/10/23 07:18:19;;;;;;;;;;;;;;;11.15;100.00;68007.13;4952422;29;20497;-82
2022/10/23 07:20:48;;;;;;;;;;;;;;;11.21;100.00;68013.38;4952631;29;20405;-83
2022/10/23 07:23:15;;;;;;;;;;;;;;;11.22;100.00;68015.09;4951490;28;20001;-82
2022/10/23 07:25:40;;;;;;;;;;;;;;;11.28;100.00;68018.66;4952031;29;19930;-83
2022/10/23 07:28:06;;;;;;;;;;;;;;;11.31;100.00;68022.06;4949105;28;19922;-82
2022/10/23 07:30:31;;;;;;;;;;;;;;;;;;4950276;29;19969;-83
2022/10/23 07:32:56;;;;;;;;;;;;;;;11.39;100.00;68033.81;4948585;28;19952;-82
2022/10/23 07:35:21;;;;;;;;;;;;;;;11.42;100.00;68037.22;4949776;29;19925;-82
2022/10/23 07:37:47;;;;;;;;;;;;;;;11.46;100.00;68041.78;4949991;29;19914;-82
2022/10/23 07:40:12;;;;;;;;;;;;;;;11.49;100.00;68049.94;4950439;29;19914;-81
2022/10/23 07:42:38;;;;;;;;;;;;;;;11.53;100.00;68043.81;4950534;28;19921;-83
2022/10/23 07:45:05;;;;;;;;;;;;;;;11.58;100.00;68054.25;4949805;29;19922;-81
2022/10/23 07:47:31;;;;;;;;;;;;;;;;;;4950349;28;19925;-82
2022/10/23 07:49:56;;;;;;;;;;;;;;;11.65;100.00;68062.19;4948999;29;19914;-83
2022/10/23 07:52:22;;;;;;;;;;;;;;;11.69;100.00;68064.09;4947497;29;19993;-84
2022/10/23 07:54:49;;;;;;;;;;;;;;;11.72;100.00;68067.50;4950465;28;19918;-84
2022/10/23 07:57:15;;;;;;;;;;;;;;;11.75;100.00;68070.91;4944728;29;19915;-82
2022/10/23 07:59:40;;;;;;;;;;;;;;;11.79;100.00;68077.53;4950659;29;19924;-83
2022/10/23 08:02:09;;;;;;;;;;;;;;;11.83;100.00;68076.75;4950609;29;19974;-84
2022/10/23 08:04:34;;;;;;;;;;;;;;;11.85;100.00;68084.94;4951560;28;19942;-83
2022/10/23 08:07:00;;;;;;;;;;;;;;;11.88;100.00;68088.38;4947234;29;21224;-85
2022/10/23 08:09:25;;;;;;;;;;;;;;;;;;4947080;29;20401;-83
2022/10/23 08:11:50;;;;;;;;;;;;;;;11.99;100.00;68099.72;4950944;29;19918;-84
2022/10/23 08:14:15;;;;;;;;;;;;;;;12.00;100.00;68101.44;4952282;28;20408;-82
2022/10/23 08:16:41;;;;;;;;;;;;;;;12.02;100.00;68103.13;4955734;29;19918;-83
2022/10/23 08:19:06;;;;;;;;;;;;;;;12.06;100.00;68102.34;4955303;29;19922;-84
2022/10/23 08:21:32;;;;;;;;;;;;;;;;;;4939385;29;19915;-83
2022/10/23 08:23:58;;;;;;;;;;;;;;;12.11;100.00;68113.34;4953886;28;19914;-82
2022/10/23 08:26:24;;;;;;;;;;;;;;;12.15;100.00;68117.91;4956367;29;19922;-83
2022/10/23 08:28:49;;;;;;;;;;;;;;;12.17;100.00;68117.50;4954475;29;19921;-83
2022/10/23 08:31:16;;;;;;;;;;;;;;;12.21;100.00;68124.72;4956524;29;20309;-84
2022/10/23 08:33:42;;;;;;;;;;;;;;;;;;4954039;28;19922;-84
2022/10/23 08:36:17;;;;;;;;;;;;;;;12.28;100.00;68129.97;4955745;29;20421;-84
2022/10/23 08:38:42;;;;;;;;;;;;;;;12.30;100.00;68134.94;4954185;29;19966;-84
2022/10/23 08:41:28;;;;;;;;;;;;;;;12.33;100.00;68137.78;4953724;29;19957;-84
2022/10/23 08:44:06;;;;;;;;;;;;;;;12.36;100.00;68141.75;4952774;28;19915;-84
2022/10/23 08:46:35;;;;;;;;;;;;;;;12.40;100.00;68140.97;4955876;29;19918;-83
2022/10/23 08:49:24;;;;;;;;;;;;;;;12.44;100.00;68147.03;4952834;29;19921;-83
2022/10/23 08:51:50;;;;;;;;;;;;;;;12.48;100.00;68151.59;4942078;29;19953;-83
2022/10/23 08:54:19;;;;;;;;;;;;;;;12.51;100.00;68155.00;4954105;28;19918;-83
2022/10/23 08:56:48;;;;;;;;;;;;;;;12.55;100.00;68160.13;4946501;29;19946;-84
2022/10/23 08:59:18;;;;;;;;;;;;;;;;;;4953921;29;19925;-84
2022/10/23 09:01:57;;;;;;;;;;;;;;;12.60;100.00;68167.88;4954882;28;19934;-84
2022/10/23 09:04:22;;;;;;;;;;;;;;;;;;4952801;28;20407;-82
2022/10/23 09:06:57;;;;;;;;;;;;;;;12.69;100.00;68174.88;4954515;29;19957;-85
2022/10/23 09:09:22;;;;;;;;;;;;;;;12.74;100.00;68181.13;4953596;29;19914;-83
2022/10/23 09:11:47;;;;;;;;;;;;;;;;;;4950256;29;19914;-84
2022/10/23 09:14:31;;;;;;;;;;;;;;;12.85;100.00;68196.31;4953182;28;19973;-82
2022/10/23 09:17:18;;;;;;;;;;;;;;;12.89;100.00;68197.63;4950308;29;20329;-85
2022/10/23 09:19:44;;;;;;;;;;;;;;;12.98;100.00;68204.63;4953313;29;19922;-84
2022/10/23 09:22:09;;;;;;;;;;;;;;;;;;4954979;29;19918;-84
2022/10/23 09:24:35;;;;;;;;;;;;;;;13.08;100.00;68215.97;4954281;28;19914;-84
2022/10/23 09:27:00;;;;;;;;;;;;;;;13.14;100.00;68222.78;4954593;29;20009;-83
2022/10/23 09:29:34;;;;;;;;;;;;;;;13.17;100.00;68228.88;4937964;29;20123;-85
2022/10/23 09:32:01;;;;;;;;;;;;;;;13.24;100.00;68239.53;4954798;29;20005;-83
2022/10/23 09:34:27;;;;;;;;;;;;;;;13.28;100.00;68243.53;4955336;28;19924;-84
2022/10/23 09:36:54;;;;;;;;;;;;;;;13.35;100.00;68251.50;4953329;28;19986;-84
2022/10/23 09:39:24;;;;;;;;;;;;;;;13.37;100.00;68253.19;4951683;28;20536;-85
2022/10/23 09:41:50;;;;;;;;;;;;;;;13.43;100.00;68257.34;4954540;28;19949;-83
2022/10/23 09:44:18;;;;;;;;;;;;;;;13.48;100.00;68266.25;4955616;28;19925;-81
2022/10/23 09:46:48;;;;;;;;;;;;;;;13.53;100.00;68271.38;4956916;29;19927;-82
2022/10/23 09:49:14;;;;;;;;;;;;;;;;;;4955863;29;20358;-81
2022/10/23 09:51:40;;;;;;;;;;;;;;;;;;4953212;29;20347;-84
2022/10/23 09:54:14;;;;;;;;;;;;;;;13.64;100.00;68280.66;4954335;28;19922;-83
2022/10/23 09:56:40;;;;;;;;;;;;;;;13.67;100.00;68284.06;4957203;29;19918;-83
2022/10/23 09:59:11;;;;;;;;;;;;;;;13.69;100.00;68289.00;4957719;29;19969;-83
2022/10/23 10:01:44;;;;;;;;;;;;;;;13.74;100.00;68292.03;4941060;29;19922;-83
2022/10/23 10:04:09;;;;;;;;;;;;;;;13.79;100.00;68299.84;4966131;28;19926;-82
2022/10/23 10:06:35;;;;;;;;;;;;;;;13.80;100.00;68295.63;4971819;29;19914;-82
2022/10/23 10:09:06;;;;;;;;;;;;;;;13.82;100.00;68303.81;4960161;29;20021;-83
2022/10/23 10:11:43;;;;;;;;;;;;;;;13.85;100.00;68307.22;4964339;29;19918;-81
2022/10/23 10:14:24;;;;;;;;;;;;;;;13.90;100.00;68307.00;4946212;29;19952;-83
2022/10/23 10:16:49;;;;;;;;;;;;;;;;;;4963277;29;19914;-82
2022/10/23 10:19:14;;;;;;;;;;;;;;;;;;4958541;29;19925;-83
2022/10/23 10:21:39;;;;;;;;;;;;;;;;;;4954178;28;19925;-82
2022/10/23 10:24:06;;;;;;;;;;;;;;;14.04;100.00;68327.69;4950995;28;20062;-82
2022/10/23 10:26:38;;;;;;;;;;;;;;;14.06;100.00;68330.53;4952400;28;19918;-82
2022/10/23 10:29:09;;;;;;;;;;;;;;;14.11;100.00;68330.31;4948253;28;19921;-82
2022/10/23 10:31:40;;;;;;;;;;;;;;;14.14;100.00;68336.41;4954250;28;19914;-83
2022/10/23 10:34:09;;;;;;;;;;;;;;;14.17;100.00;68339.81;4952667;28;19933;-83
2022/10/23 10:36:50;;;;;;;;;;;;;;;14.20;100.00;68345.91;4952017;28;20413;-82
2022/10/23 10:39:34;;;;;;;;;;;;;;;14.26;100.00;68349.50;4932491;29;19977;-82
2022/10/23 10:42:02;;;;;;;;;;;;;;;14.29;100.00;68355.59;4951910;28;19919;-81
2022/10/23 10:44:27;;;;;;;;;;;;;;;14.32;100.00;68356.88;4929648;29;19914;-82
2022/10/23 10:46:52;;;;;;;;;;;;;;;14.35;100.00;68362.97;4952819;29;20416;-83
2022/10/23 10:49:36;;;;;;;;;;;;;;;14.39;100.00;68364.88;4951665;29;19914;-82
2022/10/23 10:52:07;;;;;;;;;;;;;;;14.43;100.00;68369.41;4946469;29;19918;-81
2022/10/23 10:54:48;;;;;;;;;;;;;;;14.49;100.00;68375.09;4950378;28;19918;-83
2022/10/23 10:57:33;;;;;;;;;;;;;;;14.53;100.00;68380.25;4948610;28;19937;-82
2022/10/23 11:00:13;;;;;;;;;;;;;;;14.56;100.00;68377.75;4949253;28;19961;-82
2022/10/23 11:02:58;;;;;;;;;;;;;;;14.61;100.00;68389.34;4953288;28;20013;-82
2022/10/23 11:05:23;;;;;;;;;;;;;;;14.62;100.00;68389.94;4935326;29;19918;-82
2022/10/23 11:07:54;;;;;;;;;;;;;;;14.64;100.00;68392.19;4948610;29;19937;-81
2022/10/23 11:10:19;;;;;;;;;;;;;;;14.65;100.00;68396.59;4949666;29;20445;-83
2022/10/23 11:12:46;;;;;;;;;;;;;;;14.69;100.00;68397.88;4950405;28;20006;-82
2022/10/23 11:15:17;;;;;;;;;;;;;;;14.72;100.00;68398.63;4948502;29;19918;-83
2022/10/23 11:17:45;;;;;;;;;;;;;;;14.73;100.00;68404.53;4931540;29;19926;-83
2022/10/23 11:20:30;;;;;;;;;;;;;;;14.74;100.00;68405.69;4951771;28;19918;-83
2022/10/23 11:23:14;;;;;;;;;;;;;;;14.77;100.00;68409.13;4946359;28;20432;-83
2022/10/23 11:25:39;;;;;;;;;;;;;;;14.75;100.00;68406.81;4949606;28;19949;-82
2022/10/23 11:28:16;;;;;;;;;;;;;;;14.78;100.00;68410.25;4949888;28;19948;-83
2022/10/23 11:30:48;;;;;;;;;;;;;;;14.80;100.00;68407.16;4953812;28;20456;-82
2022/10/23 11:33:31;;;;;;;;;;;;;;;14.82;100.00;68414.81;4947678;28;19977;-82
2022/10/23 11:36:17;;;;;;;;;;;;;;;14.83;100.00;68411.16;4953873;28;19930;-83
2022/10/23 11:38:44;;;;;;;;;;;;;;;14.88;100.00;68413.59;4950766;28;19944;-83
2022/10/23 11:41:17;;;;;;;;;;;;;;;14.91;100.00;68422.38;4953306;28;20009;-82
2022/10/23 11:43:56;;;;;;;;;;;;;;;14.95;100.00;68426.91;4936149;29;19919;-83
2022/10/23 11:46:21;;;;;;;;;;;;;;;14.97;100.00;68429.19;4931625;29;19918;-83
2022/10/23 11:48:46;;;;;;;;;;;;;;;15.00;100.00;68432.06;4937124;29;19937;-82
2022/10/23 11:51:32;;;;;;;;;;;;;;;15.03;100.00;68435.47;4954333;28;19966;-83
2022/10/23 11:54:15;;;;;;;;;;;;;;;15.04;100.00;68437.16;4964856;28;20004;-83
2022/10/23 11:56:54;;;;;;;;;;;;;;;15.08;100.00;68443.84;4952166;28;19966;-82
2022/10/23 11:59:30;;;;;;;;;;;;;;;15.09;100.00;68445.53;4936206;29;20396;-83
2022/10/23 12:01:58;;;;;;;;;;;;;;;15.12;100.00;68445.72;4954952;28;20378;-83
2022/10/23 12:04:37;;;;;;;;;;;;;;;15.13;100.00;68444.16;4952928;28;19918;-83
2022/10/23 12:07:13;;;;;;;;;;;;;;;15.16;100.00;68449.69;4946521;28;19925;-83
2022/10/23 12:09:40;;;;;;;;;;;;;;;15.19;100.00;68453.09;4956510;28;19921;-81
2022/10/23 12:12:05;;;;;;;;;;;;;;;15.22;100.00;68459.22;4951511;28;19918;-83
2022/10/23 12:14:41;;;;;;;;;;;;;;;15.23;100.00;68460.34;4953575;28;19978;-82
2022/10/23 12:17:06;;;;;;;;;;;;;;;;;;4948203;28;19954;-83
2022/10/23 12:19:42;;;;;;;;;;;;;;;15.25;100.00;68459.97;4955767;29;19924;-80
2022/10/23 12:22:09;;;;;;;;;;;;;;;15.27;100.00;68462.22;4952955;28;19926;-83
2022/10/23 12:24:42;;;;;;;;;;;;;;;15.27;100.00;68462.22;4938552;29;19974;-81
2022/10/23 12:27:13;;;;;;;;;;;;;;;15.30;100.00;68462.97;4967980;28;19930;-83
2022/10/23 12:29:39;;;;;;;;;;;;;;;15.39;100.00;68478.00;4953456;29;19973;-83
2022/10/23 12:32:23;;;;;;;;;;;;;;;15.46;100.00;68486.00;4952001;29;20009;-82
2022/10/23 12:34:48;;;;;;;;;;;;;;;15.54;100.00;68487.63;4951325;29;19919;-84
2022/10/23 12:37:37;;;;;;;;;;;;;;;15.65;100.00;68502.28;4950952;29;19921;-82
2022/10/23 12:40:06;;;;;;;;;;;;;;;15.74;100.00;68514.66;4950803;29;19921;-82
2022/10/23 12:42:31;;;;;;;;;;;;;;;15.85;100.00;68524.50;4945941;28;20028;-83
2022/10/23 12:44:58;;;;;;;;;;;;;;;15.97;100.00;68538.19;4948696;28;19914;-82
2022/10/23 12:47:23;;;;;;;;;;;;;;;16.07;100.00;68551.13;4949279;29;19920;-82
2022/10/23 12:49:49;;;;;;;;;;;;;;;16.15;100.00;68560.25;4950752;28;19914;-81
2022/10/23 12:52:16;;;;;;;;;;;;;;;16.22;100.00;68568.78;4949750;29;20225;-81
2022/10/23 12:54:41;;;;;;;;;;;;;;;16.28;100.00;68577.72;4935238;29;19970;-82
2022/10/23 12:57:24;;;;;;;;;;;;;;;16.33;100.00;68577.50;4941621;29;20632;-82
2022/10/23 12:59:52;;;;;;;;;;;;;;;16.35;100.00;68579.78;4945335;28;19994;-82
2022/10/23 13:02:27;;;;;;;;;;;;;;;16.40;100.00;68586.06;4953794;28;19914;-82
2022/10/23 13:04:54;;;;;;;;;;;;;;;16.45;100.00;68594.44;4954048;28;19919;-82
2022/10/23 13:07:25;;;;;;;;;;;;;;;16.56;100.00;68603.16;4954539;28;19914;-82
2022/10/23 13:09:51;;;;;;;;;;;;;;;16.61;100.00;68611.53;4951626;28;19922;-82
2022/10/23 13:12:23;;;;;;;;;;;;;;;16.68;100.00;68620.06;4953752;28;20402;-83
2022/10/23 13:15:02;;;;;;;;;;;;;;;16.74;100.00;68623.66;4954595;29;19919;-81
2022/10/23 13:17:38;;;;;;;;;;;;;;;16.79;100.00;68626.69;4936909;29;19919;-82
2022/10/23 13:20:15;;;;;;;;;;;;;;;16.86;100.00;68636.78;4937263;29;20382;-81
2022/10/23 13:22:40;;;;;;;;;;;;;;;16.92;100.00;68644.22;4936478;29;19922;-82
2022/10/23 13:25:38;;;;;;;;;;;;;;;16.96;100.00;68648.22;4953958;29;20435;-82